Minjerribah — VHLD — position and weather

sailwx.info

Track history (hours):
 
Tides and Currents Weather Stations Pressure Air Temp Water Temp Dewpoint Dewpoint Depression Visibility Wind Speed Wind Dir Waves Ship Positions

Minjerribah

Last reported at 2017-Nov-10 17:17 UTC. Time now 2017-Nov-22 18:40 UTC.
Position S 26°59' E 153°13'.
Warning: this ship's position is 12 days out of date.

Length 68 m; draft 2 m.

Type: Passenger vessel. MMSI: 503709000.

Date/timePositionNaut miles runAvg speedWind from/ knotsBaromVisibWave heightAir tempDewpointWater temp
2017-Nov-10 17:17S 26°59' E 153°13'310.6
2017-Nov-10 16:59S 27°02' E 153°15'5 8.9
2017-Nov-10 16:26S 27°05' E 153°19'6 9.2
2017-Nov-10 15:50S 27°10' E 153°21'410.1
2017-Nov-10 15:24S 27°14' E 153°20'410.6
2017-Nov-10 15:00S 27°19' E 153°19'510.6
2017-Nov-10 14:30S 27°24' E 153°18'510.1
2017-Nov-10 14:00S 27°29' E 153°18'4 7.0
2017-Nov-10 13:30S 27°32' E 153°18'1 1.8
2017-Nov-10 13:00S 27°32' E 153°17'0 0.0
2017-Nov-10 12:30S 27°32' E 153°17'0 0.0
2017-Nov-10 12:00S 27°32' E 153°17'0 0.0
2017-Nov-10 11:30S 27°32' E 153°17'0 0.0
2017-Nov-10 11:00S 27°32' E 153°17'0 0.0
2017-Nov-10 10:30S 27°32' E 153°17'0 0.0
2017-Nov-10 10:00S 27°32' E 153°17'2 4.0
2017-Nov-10 09:30S 27°32' E 153°19'5 9.3
2017-Nov-10 09:00S 27°30' E 153°24'2 4.4
2017-Nov-10 08:30S 27°31' E 153°22'4 8.7
2017-Nov-10 08:00S 27°32' E 153°17'2 4.7
2017-Nov-10 07:30S 27°32' E 153°20'4 8.4
2017-Nov-10 07:00S 27°30' E 153°24'4 8.5
2017-Nov-10 06:30S 27°32' E 153°20'2 4.6
2017-Nov-10 06:00S 27°32' E 153°17'3 6.1
2017-Nov-10 05:30S 27°32' E 153°21'3 6.8
2017-Nov-10 05:00S 27°30' E 153°24'4 8.7
2017-Nov-10 04:30S 27°32' E 153°20'2 4.5
2017-Nov-10 04:00S 27°32' E 153°17'5 8.1
2017-Nov-10 03:25S 27°31' E 153°22'2 4.3
2017-Nov-10 03:00S 27°30' E 153°24'510.3
2017-Nov-10 02:30S 27°32' E 153°19'2 3.2
2017-Nov-10 02:00S 27°32' E 153°17'4 7.3
2017-Nov-10 01:29S 27°32' E 153°21'3 5.8
2017-Nov-10 01:00S 27°30' E 153°24'5 9.4
2017-Nov-10 00:30S 27°32' E 153°19'2 3.5
2017-Nov-09 23:57S 27°32' E 153°17'3 6.5
2017-Nov-09 23:30S 27°32' E 153°20'4 7.1
2017-Nov-09 23:00S 27°30' E 153°24'3 6.9
2017-Nov-09 22:30S 27°32' E 153°21'3 6.2
2017-Nov-09 22:00S 27°32' E 153°17'0 0.0
2017-Nov-09 21:30S 27°32' E 153°17'2 4.9
2017-Nov-09 21:00S 27°32' E 153°20'4 8.1
2017-Nov-09 20:30S 27°30' E 153°24'3 5.2
2017-Nov-09 20:00S 27°32' E 153°21'4 7.8
2017-Nov-09 19:30S 27°32' E 153°17'0 0.0
2017-Nov-09 07:54S 27°32' E 153°17'4 7.6
2017-Nov-09 07:21S 27°31' E 153°22'2 6.6
2017-Nov-09 07:00S 27°30' E 153°24'2 4.7
2017-Nov-09 06:30S 27°32' E 153°22'4 8.4
2017-Nov-09 06:00S 27°32' E 153°17'2 3.6
2017-Nov-09 05:30S 27°32' E 153°19'5 9.6
2017-Nov-09 05:00S 27°30' E 153°24'2 4.9
2017-Nov-09 04:30S 27°32' E 153°22'4 8.1
2017-Nov-09 04:00S 27°32' E 153°17'3 5.7
2017-Nov-09 03:29S 27°32' E 153°20'4 7.3
2017-Nov-09 03:00S 27°30' E 153°24'2 4.2
2017-Nov-09 02:30S 27°31' E 153°22'5 9.0
2017-Nov-09 02:00S 27°32' E 153°17'2 4.6
2017-Nov-09 01:28S 27°32' E 153°20'4 8.9
2017-Nov-09 01:00S 27°30' E 153°24'2 4.3
2017-Nov-09 00:30S 27°32' E 153°22'4 8.9
2017-Nov-09 00:00S 27°32' E 153°17'2 3.9
2017-Nov-08 23:30S 27°32' E 153°19'5 9.5
2017-Nov-08 23:00S 27°30' E 153°24'3 5.1
2017-Nov-08 22:30S 27°32' E 153°22'4 8.0
2017-Nov-08 22:00S 27°32' E 153°17'0 0.0
2017-Nov-08 21:30S 27°32' E 153°17'3 5.0
2017-Nov-08 21:00S 27°32' E 153°20'4 8.1
2017-Nov-08 20:30S 27°30' E 153°24'3 5.1
2017-Nov-08 20:00S 27°32' E 153°22'4 8.0
2017-Nov-08 19:30S 27°32' E 153°17'0 0.0
2017-Nov-08 19:00S 27°32' E 153°17'0 0.0
2017-Nov-08 07:57S 27°32' E 153°17'2 4.8
2017-Nov-08 07:30S 27°32' E 153°19'4 8.8
2017-Nov-08 07:00S 27°30' E 153°24'2 4.9
2017-Nov-08 06:30S 27°32' E 153°22'4 5.5
2017-Nov-08 05:45S 27°32' E 153°17'2 7.1
2017-Nov-08 05:30S 27°32' E 153°19'5 7.6
2017-Nov-08 04:52S 27°30' E 153°24'3 7.1
2017-Nov-08 04:30S 27°32' E 153°22'4 5.7
2017-Nov-08 03:49S 27°32' E 153°17'3 8.1
2017-Nov-08 03:30S 27°32' E 153°20'4 8.0
2017-Nov-08 03:00S 27°30' E 153°24'3 5.9
2017-Nov-08 02:30S 27°32' E 153°21'4 4.9
2017-Nov-08 01:46S 27°32' E 153°17'2 7.3
2017-Nov-08 01:29S 27°32' E 153°19'5 9.6
2017-Nov-08 01:00S 27°30' E 153°24'2 4.2
2017-Nov-08 00:30S 27°32' E 153°22'4 8.9
2017-Nov-08 00:00S 27°32' E 153°17'5 6.6
2017-Nov-07 23:15S 27°31' E 153°23'2 6.3
2017-Nov-07 23:00S 27°30' E 153°24'3 6.0
2017-Nov-07 22:30S 27°32' E 153°21'4 7.2
2017-Nov-07 22:00S 27°32' E 153°17'0 0.0
2017-Nov-07 21:29S 27°32' E 153°17'2 4.3
2017-Nov-07 20:58S 27°32' E 153°20'4 9.4
2017-Nov-07 20:30S 27°30' E 153°24'2 4.8
2017-Nov-07 20:00S 27°31' E 153°22'4 8.1
2017-Nov-07 19:30S 27°32' E 153°17'0 0.0
2017-Nov-07 09:00S 27°32' E 153°17'2 4.9
2017-Nov-07 08:30S 27°32' E 153°20'4 8.1
2017-Nov-07 08:00S 27°30' E 153°24'4 7.9
2017-Nov-07 07:30S 27°32' E 153°20'3 5.0
2017-Nov-07 06:59S 27°32' E 153°17'0 0.0
2017-Nov-07 06:30S 27°32' E 153°17'2 4.8
2017-Nov-07 06:00S 27°32' E 153°20'4 8.2
2017-Nov-07 05:30S 27°30' E 153°24'0 0.0
2017-Nov-07 04:59S 27°30' E 153°24'3 6.2
2017-Nov-07 04:30S 27°32' E 153°21'4 7.1
2017-Nov-07 04:00S 27°32' E 153°17'3 6.6
2017-Nov-07 03:30S 27°32' E 153°21'3 6.1
2017-Nov-07 02:59S 27°30' E 153°24'3 6.2
2017-Nov-07 02:30S 27°32' E 153°21'4 6.9
2017-Nov-07 01:59S 27°32' E 153°17'2 4.8
2017-Nov-07 01:30S 27°32' E 153°20'4 8.5
2017-Nov-07 01:00S 27°30' E 153°24'2 3.9
2017-Nov-07 00:30S 27°31' E 153°22'5 9.2
2017-Nov-07 00:00S 27°32' E 153°17'2 4.4
2017-Nov-06 23:30S 27°32' E 153°20'4 8.9
2017-Nov-06 23:00S 27°30' E 153°24'3 6.1
2017-Nov-06 22:30S 27°32' E 153°21'4 6.9
2017-Nov-06 22:00S 27°32' E 153°17'0 0.0
2017-Nov-06 21:30S 27°32' E 153°17'5 6.7
2017-Nov-06 20:49S 27°31' E 153°22'2 6.3
2017-Nov-06 20:30S 27°30' E 153°24'4 0.2
2017-Nov-06 02:30S 27°32' E 153°20'3 6.0
2017-Nov-06 02:01S 27°32' E 153°17'4 6.8
2017-Nov-06 01:30S 27°32' E 153°21'3 6.1
2017-Nov-06 01:01S 27°30' E 153°24'4 7.8
2017-Nov-06 00:31S 27°32' E 153°20'3 5.2
2017-Nov-06 00:00S 27°32' E 153°17'4 8.4
2017-Nov-05 23:28S 27°31' E 153°22'2 4.5
2017-Nov-05 23:01S 27°30' E 153°24'4 8.4
2017-Nov-05 22:31S 27°32' E 153°20'2 4.5
2017-Nov-05 21:59S 27°32' E 153°17'0 0.0
2017-Nov-05 21:30S 27°32' E 153°17'5 8.3
2017-Nov-05 20:55S 27°31' E 153°23'2 4.1
2017-Nov-05 20:30S 27°30' E 153°24'3 6.3
2017-Nov-05 20:01S 27°32' E 153°21'3 6.9
2017-Nov-05 19:31S 27°32' E 153°17'0 0.0
2017-Nov-05 09:59S 27°32' E 153°17'5 6.9
2017-Nov-05 09:15S 27°31' E 153°23'2 6.3
2017-Nov-05 09:00S 27°30' E 153°24'2 4.8
2017-Nov-05 08:30S 27°32' E 153°22'4 8.3
2017-Nov-05 08:00S 27°32' E 153°17'2 3.7
2017-Nov-05 07:30S 27°32' E 153°19'5 9.5
2017-Nov-05 07:00S 27°30' E 153°24'2 4.3
2017-Nov-05 06:30S 27°31' E 153°22'4 8.7
2017-Nov-05 06:00S 27°32' E 153°17'2 3.0
2017-Nov-05 05:29S 27°32' E 153°19'510.9
2017-Nov-05 05:00S 27°30' E 153°24'2 3.5
2017-Nov-05 04:30S 27°31' E 153°22'5 9.1
2017-Nov-05 03:59S 27°32' E 153°17'2 2.9
2017-Nov-05 03:28S 27°32' E 153°19'510.5
2017-Nov-05 02:58S 27°30' E 153°24'1 3.2
2017-Nov-05 02:30S 27°31' E 153°23'510.1
2017-Nov-05 02:00S 27°32' E 153°17'2 3.4
2017-Nov-05 01:27S 27°32' E 153°19'510.4
2017-Nov-05 01:00S 27°30' E 153°24'1 2.6
2017-Nov-05 00:30S 27°31' E 153°23'510.3
2017-Nov-05 00:00S 27°32' E 153°17'2 3.5
2017-Nov-04 23:27S 27°32' E 153°19'510.1
2017-Nov-04 23:00S 27°30' E 153°24'2 3.3
2017-Nov-04 22:30S 27°31' E 153°23'5 9.8
2017-Nov-04 22:00S 27°32' E 153°17'0 0.0
2017-Nov-04 21:30S 27°32' E 153°17'2 4.1
2017-Nov-04 21:00S 27°32' E 153°19'4 9.1
2017-Nov-04 20:30S 27°30' E 153°24'2 4.6
2017-Nov-04 20:00S 27°32' E 153°22'4 8.3
2017-Nov-04 19:30S 27°32' E 153°17'0 0.0
2017-Nov-04 07:59S 27°32' E 153°17'4 8.1
2017-Nov-04 07:28S 27°32' E 153°22'2 5.1
2017-Nov-04 07:00S 27°30' E 153°24'4 8.6
2017-Nov-04 06:30S 27°32' E 153°20'2 4.5
2017-Nov-04 06:00S 27°32' E 153°17'4 7.2
2017-Nov-04 05:24S 27°31' E 153°22'2 5.5
2017-Nov-04 05:00S 27°30' E 153°24'2 5.0
2017-Nov-04 04:30S 27°32' E 153°22'4 7.9
2017-Nov-04 03:59S 27°32' E 153°17'2 3.5
2017-Nov-04 03:30S 27°32' E 153°19'510.0
2017-Nov-04 03:00S 27°30' E 153°24'2 4.9
2017-Nov-04 02:30S 27°31' E 153°22'4 8.0
2017-Nov-04 02:00S 27°32' E 153°17'2 3.5
2017-Nov-04 01:29S 27°32' E 153°19'2 0.1
2017-Nov-03 12:10S 27°32' E 153°17'0 0.4
2017-Nov-03 12:00S 27°32' E 153°17'5 9.1
2017-Nov-03 11:31S 27°31' E 153°22'1 2.2
2017-Nov-03 11:01S 27°31' E 153°23'510.2
2017-Nov-03 10:31S 27°32' E 153°18'5 5.1
2017-Nov-03 09:34S 27°31' E 153°23'1 9.7
2017-Nov-03 09:27S 27°30' E 153°24'2 5.5
2017-Nov-03 09:01S 27°32' E 153°22'4 8.3
2017-Nov-03 08:31S 27°32' E 153°17'2 3.3
2017-Nov-03 08:01S 27°33' E 153°19'510.4
2017-Nov-03 07:30S 27°30' E 153°24'3 5.8
2017-Nov-03 07:01S 27°32' E 153°21'4 7.1
2017-Nov-03 06:31S 27°32' E 153°17'1 1.3
2017-Nov-03 06:01S 27°32' E 153°18'5 9.9
2017-Nov-03 05:31S 27°31' E 153°23'0 0.5
2017-Nov-03 05:01S 27°31' E 153°23'5 9.5
2017-Nov-03 04:30S 27°33' E 153°18'1 2.6
2017-Nov-03 04:01S 27°32' E 153°17'4 7.8
2017-Nov-03 03:30S 27°31' E 153°22'2 5.0
2017-Nov-03 03:01S 27°30' E 153°24'5 9.1
2017-Nov-03 02:31S 27°32' E 153°19'2 4.0
2017-Nov-03 02:01S 27°32' E 153°17'2 3.8
2017-Nov-03 01:30S 27°32' E 153°19'5 9.5
2017-Nov-03 01:01S 27°30' E 153°24'3 5.2
2017-Nov-03 00:30S 27°32' E 153°22'4 7.9
2017-Nov-03 00:00S 27°32' E 153°17'2 4.2
2017-Nov-02 23:30S 27°32' E 153°19'5 9.0
2017-Nov-02 23:00S 27°30' E 153°24'2 4.0
2017-Nov-02 22:30S 27°31' E 153°22'5 9.2
2017-Nov-02 22:01S 27°32' E 153°17'0 0.0
2017-Nov-02 21:31S 27°32' E 153°17'2 4.5
2017-Nov-02 21:01S 27°32' E 153°20'4 8.6
2017-Nov-02 20:30S 27°30' E 153°24'4 8.1
2017-Nov-02 20:01S 27°32' E 153°20'3 3.9
2017-Nov-02 19:21S 27°32' E 153°17'0 0.0
2017-Nov-02 08:01S 27°32' E 153°17'0 0.0
2017-Nov-02 07:55S 27°32' E 153°17'5 8.3
2017-Nov-02 07:17S 27°31' E 153°23'1 4.5
2017-Nov-02 07:00S 27°30' E 153°24'4 7.7
2017-Nov-02 06:31S 27°32' E 153°20'3 5.5
2017-Nov-02 06:00S 27°32' E 153°17'3 5.9
2017-Nov-02 05:30S 27°32' E 153°20'4 7.1
2017-Nov-02 05:00S 27°30' E 153°24'3 6.8
2017-Nov-02 04:30S 27°32' E 153°21'3 6.3
2017-Nov-02 04:01S 27°32' E 153°17'2 4.1
2017-Nov-02 03:30S 27°32' E 153°19'5 9.1
2017-Nov-02 03:01S 27°30' E 153°24'3 6.0
2017-Nov-02 02:30S 27°32' E 153°21'4 7.1
2017-Nov-02 02:01S 27°32' E 153°17'2 4.1
2017-Nov-02 01:29S 27°32' E 153°19'4 9.2
2017-Nov-02 01:00S 27°30' E 153°24'3 5.4
2017-Nov-02 00:30S 27°32' E 153°21'4 7.6
2017-Nov-02 00:00S 27°32' E 153°17'2 4.2
2017-Nov-01 23:30S 27°32' E 153°19'4 8.8
2017-Nov-01 23:00S 27°30' E 153°24'3 5.3
2017-Nov-01 22:31S 27°32' E 153°22'4 7.8
2017-Nov-01 22:00S 27°32' E 153°17'0 0.0
2017-Nov-01 21:30S 27°32' E 153°17'5 6.8
2017-Nov-01 20:42S 27°31' E 153°23'1 6.0
2017-Nov-01 20:30S 27°30' E 153°24'3 5.7
2017-Nov-01 20:00S 27°32' E 153°21'4 0.2
2017-Nov-01 02:00S 27°32' E 153°17'2 4.3
2017-Nov-01 01:30S 27°32' E 153°19'4 8.8
2017-Nov-01 01:00S 27°30' E 153°24'3 6.4
2017-Nov-01 00:30S 27°32' E 153°21'3 6.6
2017-Nov-01 00:00S 27°32' E 153°17'2 4.0
2017-Oct-31 23:30S 27°32' E 153°19'5 9.1
2017-Oct-31 23:00S 27°30' E 153°24'2 4.8
2017-Oct-31 22:30S 27°32' E 153°22'4 8.3
2017-Oct-31 22:00S 27°32' E 153°17'0 0.0
2017-Oct-31 21:30S 27°32' E 153°17'3 5.6
2017-Oct-31 21:00S 27°32' E 153°20'4 7.5
2017-Oct-31 20:30S 27°30' E 153°24'2 3.9
2017-Oct-31 20:00S 27°31' E 153°22'5 9.2
2017-Oct-31 19:30S 27°32' E 153°17'  
Track history (hours):
 
Tides and Currents Weather Stations Pressure Air Temp Water Temp Dewpoint Dewpoint Depression Visibility Wind Speed Wind Dir Waves Ship Positions

Minjerribah

Last reported at 2017-Nov-10 17:17 UTC. Time now 2017-Nov-22 18:40 UTC.
Position S 26°59' E 153°13'.
Warning: this ship's position is 12 days out of date.

Length 68 m; draft 2 m.

Type: Passenger vessel. MMSI: 503709000.

Date/timePositionNaut miles runAvg speedWind from/ knotsBaromVisibWave heightAir tempDewpointWater temp
2017-Nov-10 17:17S 26°59' E 153°13'310.6
2017-Nov-10 16:59S 27°02' E 153°15'5 8.9
2017-Nov-10 16:26S 27°05' E 153°19'6 9.2
2017-Nov-10 15:50S 27°10' E 153°21'410.1
2017-Nov-10 15:24S 27°14' E 153°20'410.6
2017-Nov-10 15:00S 27°19' E 153°19'510.6
2017-Nov-10 14:30S 27°24' E 153°18'510.1
2017-Nov-10 14:00S 27°29' E 153°18'4 7.0
2017-Nov-10 13:30S 27°32' E 153°18'1 1.8
2017-Nov-10 13:00S 27°32' E 153°17'0 0.0
2017-Nov-10 12:30S 27°32' E 153°17'0 0.0
2017-Nov-10 12:00S 27°32' E 153°17'0 0.0
2017-Nov-10 11:30S 27°32' E 153°17'0 0.0
2017-Nov-10 11:00S 27°32' E 153°17'0 0.0
2017-Nov-10 10:30S 27°32' E 153°17'0 0.0
2017-Nov-10 10:00S 27°32' E 153°17'2 4.0
2017-Nov-10 09:30S 27°32' E 153°19'5 9.3
2017-Nov-10 09:00S 27°30' E 153°24'2 4.4
2017-Nov-10 08:30S 27°31' E 153°22'4 8.7
2017-Nov-10 08:00S 27°32' E 153°17'2 4.7
2017-Nov-10 07:30S 27°32' E 153°20'4 8.4
2017-Nov-10 07:00S 27°30' E 153°24'4 8.5
2017-Nov-10 06:30S 27°32' E 153°20'2 4.6
2017-Nov-10 06:00S 27°32' E 153°17'3 6.1
2017-Nov-10 05:30S 27°32' E 153°21'3 6.8
2017-Nov-10 05:00S 27°30' E 153°24'4 8.7
2017-Nov-10 04:30S 27°32' E 153°20'2 4.5
2017-Nov-10 04:00S 27°32' E 153°17'5 8.1
2017-Nov-10 03:25S 27°31' E 153°22'2 4.3
2017-Nov-10 03:00S 27°30' E 153°24'510.3
2017-Nov-10 02:30S 27°32' E 153°19'2 3.2
2017-Nov-10 02:00S 27°32' E 153°17'4 7.3
2017-Nov-10 01:29S 27°32' E 153°21'3 5.8
2017-Nov-10 01:00S 27°30' E 153°24'5 9.4
2017-Nov-10 00:30S 27°32' E 153°19'2 3.5
2017-Nov-09 23:57S 27°32' E 153°17'3 6.5
2017-Nov-09 23:30S 27°32' E 153°20'4 7.1
2017-Nov-09 23:00S 27°30' E 153°24'3 6.9
2017-Nov-09 22:30S 27°32' E 153°21'3 6.2
2017-Nov-09 22:00S 27°32' E 153°17'0 0.0
2017-Nov-09 21:30S 27°32' E 153°17'2 4.9
2017-Nov-09 21:00S 27°32' E 153°20'4 8.1
2017-Nov-09 20:30S 27°30' E 153°24'3 5.2
2017-Nov-09 20:00S 27°32' E 153°21'4 7.8
2017-Nov-09 19:30S 27°32' E 153°17'0 0.0
2017-Nov-09 07:54S 27°32' E 153°17'4 7.6
2017-Nov-09 07:21S 27°31' E 153°22'2 6.6
2017-Nov-09 07:00S 27°30' E 153°24'2 4.7
2017-Nov-09 06:30S 27°32' E 153°22'4 8.4
2017-Nov-09 06:00S 27°32' E 153°17'2 3.6
2017-Nov-09 05:30S 27°32' E 153°19'5 9.6
2017-Nov-09 05:00S 27°30' E 153°24'2 4.9
2017-Nov-09 04:30S 27°32' E 153°22'4 8.1
2017-Nov-09 04:00S 27°32' E 153°17'3 5.7
2017-Nov-09 03:29S 27°32' E 153°20'4 7.3
2017-Nov-09 03:00S 27°30' E 153°24'2 4.2
2017-Nov-09 02:30S 27°31' E 153°22'5 9.0
2017-Nov-09 02:00S 27°32' E 153°17'2 4.6
2017-Nov-09 01:28S 27°32' E 153°20'4 8.9
2017-Nov-09 01:00S 27°30' E 153°24'2 4.3
2017-Nov-09 00:30S 27°32' E 153°22'4 8.9
2017-Nov-09 00:00S 27°32' E 153°17'2 3.9
2017-Nov-08 23:30S 27°32' E 153°19'5 9.5
2017-Nov-08 23:00S 27°30' E 153°24'3 5.1
2017-Nov-08 22:30S 27°32' E 153°22'4 8.0
2017-Nov-08 22:00S 27°32' E 153°17'0 0.0
2017-Nov-08 21:30S 27°32' E 153°17'3 5.0
2017-Nov-08 21:00S 27°32' E 153°20'4 8.1
2017-Nov-08 20:30S 27°30' E 153°24'3 5.1
2017-Nov-08 20:00S 27°32' E 153°22'4 8.0
2017-Nov-08 19:30S 27°32' E 153°17'0 0.0
2017-Nov-08 19:00S 27°32' E 153°17'0 0.0
2017-Nov-08 07:57S 27°32' E 153°17'2 4.8
2017-Nov-08 07:30S 27°32' E 153°19'4 8.8
2017-Nov-08 07:00S 27°30' E 153°24'2 4.9
2017-Nov-08 06:30S 27°32' E 153°22'4 5.5
2017-Nov-08 05:45S 27°32' E 153°17'2 7.1
2017-Nov-08 05:30S 27°32' E 153°19'5 7.6
2017-Nov-08 04:52S 27°30' E 153°24'3 7.1
2017-Nov-08 04:30S 27°32' E 153°22'4 5.7
2017-Nov-08 03:49S 27°32' E 153°17'3 8.1
2017-Nov-08 03:30S 27°32' E 153°20'4 8.0
2017-Nov-08 03:00S 27°30' E 153°24'3 5.9
2017-Nov-08 02:30S 27°32' E 153°21'4 4.9
2017-Nov-08 01:46S 27°32' E 153°17'2 7.3
2017-Nov-08 01:29S 27°32' E 153°19'5 9.6
2017-Nov-08 01:00S 27°30' E 153°24'2 4.2
2017-Nov-08 00:30S 27°32' E 153°22'4 8.9
2017-Nov-08 00:00S 27°32' E 153°17'5 6.6
2017-Nov-07 23:15S 27°31' E 153°23'2 6.3
2017-Nov-07 23:00S 27°30' E 153°24'3 6.0
2017-Nov-07 22:30S 27°32' E 153°21'4 7.2
2017-Nov-07 22:00S 27°32' E 153°17'0 0.0
2017-Nov-07 21:29S 27°32' E 153°17'2 4.3
2017-Nov-07 20:58S 27°32' E 153°20'4 9.4
2017-Nov-07 20:30S 27°30' E 153°24'2 4.8
2017-Nov-07 20:00S 27°31' E 153°22'4 8.1
2017-Nov-07 19:30S 27°32' E 153°17'0 0.0
2017-Nov-07 09:00S 27°32' E 153°17'2 4.9
2017-Nov-07 08:30S 27°32' E 153°20'4 8.1
2017-Nov-07 08:00S 27°30' E 153°24'4 7.9
2017-Nov-07 07:30S 27°32' E 153°20'3 5.0
2017-Nov-07 06:59S 27°32' E 153°17'0 0.0
2017-Nov-07 06:30S 27°32' E 153°17'2 4.8
2017-Nov-07 06:00S 27°32' E 153°20'4 8.2
2017-Nov-07 05:30S 27°30' E 153°24'0 0.0
2017-Nov-07 04:59S 27°30' E 153°24'3 6.2
2017-Nov-07 04:30S 27°32' E 153°21'4 7.1
2017-Nov-07 04:00S 27°32' E 153°17'3 6.6
2017-Nov-07 03:30S 27°32' E 153°21'3 6.1
2017-Nov-07 02:59S 27°30' E 153°24'3 6.2
2017-Nov-07 02:30S 27°32' E 153°21'4 6.9
2017-Nov-07 01:59S 27°32' E 153°17'2 4.8
2017-Nov-07 01:30S 27°32' E 153°20'4 8.5
2017-Nov-07 01:00S 27°30' E 153°24'2 3.9
2017-Nov-07 00:30S 27°31' E 153°22'5 9.2
2017-Nov-07 00:00S 27°32' E 153°17'2 4.4
2017-Nov-06 23:30S 27°32' E 153°20'4 8.9
2017-Nov-06 23:00S 27°30' E 153°24'3 6.1
2017-Nov-06 22:30S 27°32' E 153°21'4 6.9
2017-Nov-06 22:00S 27°32' E 153°17'0 0.0
2017-Nov-06 21:30S 27°32' E 153°17'5 6.7
2017-Nov-06 20:49S 27°31' E 153°22'2 6.3
2017-Nov-06 20:30S 27°30' E 153°24'4 0.2
2017-Nov-06 02:30S 27°32' E 153°20'3 6.0
2017-Nov-06 02:01S 27°32' E 153°17'4 6.8
2017-Nov-06 01:30S 27°32' E 153°21'3 6.1
2017-Nov-06 01:01S 27°30' E 153°24'4 7.8
2017-Nov-06 00:31S 27°32' E 153°20'3 5.2
2017-Nov-06 00:00S 27°32' E 153°17'4 8.4
2017-Nov-05 23:28S 27°31' E 153°22'2 4.5
2017-Nov-05 23:01S 27°30' E 153°24'4 8.4
2017-Nov-05 22:31S 27°32' E 153°20'2 4.5
2017-Nov-05 21:59S 27°32' E 153°17'0 0.0
2017-Nov-05 21:30S 27°32' E 153°17'5 8.3
2017-Nov-05 20:55S 27°31' E 153°23'2 4.1
2017-Nov-05 20:30S 27°30' E 153°24'3 6.3
2017-Nov-05 20:01S 27°32' E 153°21'3 6.9
2017-Nov-05 19:31S 27°32' E 153°17'0 0.0
2017-Nov-05 09:59S 27°32' E 153°17'5 6.9
2017-Nov-05 09:15S 27°31' E 153°23'2 6.3
2017-Nov-05 09:00S 27°30' E 153°24'2 4.8
2017-Nov-05 08:30S 27°32' E 153°22'4 8.3
2017-Nov-05 08:00S 27°32' E 153°17'2 3.7
2017-Nov-05 07:30S 27°32' E 153°19'5 9.5
2017-Nov-05 07:00S 27°30' E 153°24'2 4.3
2017-Nov-05 06:30S 27°31' E 153°22'4 8.7
2017-Nov-05 06:00S 27°32' E 153°17'2 3.0
2017-Nov-05 05:29S 27°32' E 153°19'510.9
2017-Nov-05 05:00S 27°30' E 153°24'2 3.5
2017-Nov-05 04:30S 27°31' E 153°22'5 9.1
2017-Nov-05 03:59S 27°32' E 153°17'2 2.9
2017-Nov-05 03:28S 27°32' E 153°19'510.5
2017-Nov-05 02:58S 27°30' E 153°24'1 3.2
2017-Nov-05 02:30S 27°31' E 153°23'510.1
2017-Nov-05 02:00S 27°32' E 153°17'2 3.4
2017-Nov-05 01:27S 27°32' E 153°19'510.4
2017-Nov-05 01:00S 27°30' E 153°24'1 2.6
2017-Nov-05 00:30S 27°31' E 153°23'510.3
2017-Nov-05 00:00S 27°32' E 153°17'2 3.5
2017-Nov-04 23:27S 27°32' E 153°19'510.1
2017-Nov-04 23:00S 27°30' E 153°24'2 3.3
2017-Nov-04 22:30S 27°31' E 153°23'5 9.8
2017-Nov-04 22:00S 27°32' E 153°17'0 0.0
2017-Nov-04 21:30S 27°32' E 153°17'2 4.1
2017-Nov-04 21:00S 27°32' E 153°19'4 9.1
2017-Nov-04 20:30S 27°30' E 153°24'2 4.6
2017-Nov-04 20:00S 27°32' E 153°22'4 8.3
2017-Nov-04 19:30S 27°32' E 153°17'0 0.0
2017-Nov-04 07:59S 27°32' E 153°17'4 8.1
2017-Nov-04 07:28S 27°32' E 153°22'2 5.1
2017-Nov-04 07:00S 27°30' E 153°24'4 8.6
2017-Nov-04 06:30S 27°32' E 153°20'2 4.5
2017-Nov-04 06:00S 27°32' E 153°17'4 7.2
2017-Nov-04 05:24S 27°31' E 153°22'2 5.5
2017-Nov-04 05:00S 27°30' E 153°24'2 5.0
2017-Nov-04 04:30S 27°32' E 153°22'4 7.9
2017-Nov-04 03:59S 27°32' E 153°17'2 3.5
2017-Nov-04 03:30S 27°32' E 153°19'510.0
2017-Nov-04 03:00S 27°30' E 153°24'2 4.9
2017-Nov-04 02:30S 27°31' E 153°22'4 8.0
2017-Nov-04 02:00S 27°32' E 153°17'2 3.5
2017-Nov-04 01:29S 27°32' E 153°19'2 0.1
2017-Nov-03 12:10S 27°32' E 153°17'0 0.4
2017-Nov-03 12:00S 27°32' E 153°17'5 9.1
2017-Nov-03 11:31S 27°31' E 153°22'1 2.2
2017-Nov-03 11:01S 27°31' E 153°23'510.2
2017-Nov-03 10:31S 27°32' E 153°18'5 5.1
2017-Nov-03 09:34S 27°31' E 153°23'1 9.7
2017-Nov-03 09:27S 27°30' E 153°24'2 5.5
2017-Nov-03 09:01S 27°32' E 153°22'4 8.3
2017-Nov-03 08:31S 27°32' E 153°17'2 3.3
2017-Nov-03 08:01S 27°33' E 153°19'510.4
2017-Nov-03 07:30S 27°30' E 153°24'3 5.8
2017-Nov-03 07:01S 27°32' E 153°21'4 7.1
2017-Nov-03 06:31S 27°32' E 153°17'1 1.3
2017-Nov-03 06:01S 27°32' E 153°18'5 9.9
2017-Nov-03 05:31S 27°31' E 153°23'0 0.5
2017-Nov-03 05:01S 27°31' E 153°23'5 9.5
2017-Nov-03 04:30S 27°33' E 153°18'1 2.6
2017-Nov-03 04:01S 27°32' E 153°17'4 7.8
2017-Nov-03 03:30S 27°31' E 153°22'2 5.0
2017-Nov-03 03:01S 27°30' E 153°24'5 9.1
2017-Nov-03 02:31S 27°32' E 153°19'2 4.0
2017-Nov-03 02:01S 27°32' E 153°17'2 3.8
2017-Nov-03 01:30S 27°32' E 153°19'5 9.5
2017-Nov-03 01:01S 27°30' E 153°24'3 5.2
2017-Nov-03 00:30S 27°32' E 153°22'4 7.9
2017-Nov-03 00:00S 27°32' E 153°17'2 4.2
2017-Nov-02 23:30S 27°32' E 153°19'5 9.0
2017-Nov-02 23:00S 27°30' E 153°24'2 4.0
2017-Nov-02 22:30S 27°31' E 153°22'5 9.2
2017-Nov-02 22:01S 27°32' E 153°17'0 0.0
2017-Nov-02 21:31S 27°32' E 153°17'2 4.5
2017-Nov-02 21:01S 27°32' E 153°20'4 8.6
2017-Nov-02 20:30S 27°30' E 153°24'4 8.1
2017-Nov-02 20:01S 27°32' E 153°20'3 3.9
2017-Nov-02 19:21S 27°32' E 153°17'0 0.0
2017-Nov-02 08:01S 27°32' E 153°17'0 0.0
2017-Nov-02 07:55S 27°32' E 153°17'5 8.3
2017-Nov-02 07:17S 27°31' E 153°23'1 4.5
2017-Nov-02 07:00S 27°30' E 153°24'4 7.7
2017-Nov-02 06:31S 27°32' E 153°20'3 5.5
2017-Nov-02 06:00S 27°32' E 153°17'3 5.9
2017-Nov-02 05:30S 27°32' E 153°20'4 7.1
2017-Nov-02 05:00S 27°30' E 153°24'3 6.8
2017-Nov-02 04:30S 27°32' E 153°21'3 6.3
2017-Nov-02 04:01S 27°32' E 153°17'2 4.1
2017-Nov-02 03:30S 27°32' E 153°19'5 9.1
2017-Nov-02 03:01S 27°30' E 153°24'3 6.0
2017-Nov-02 02:30S 27°32' E 153°21'4 7.1
2017-Nov-02 02:01S 27°32' E 153°17'2 4.1
2017-Nov-02 01:29S 27°32' E 153°19'4 9.2
2017-Nov-02 01:00S 27°30' E 153°24'3 5.4
2017-Nov-02 00:30S 27°32' E 153°21'4 7.6
2017-Nov-02 00:00S 27°32' E 153°17'2 4.2
2017-Nov-01 23:30S 27°32' E 153°19'4 8.8
2017-Nov-01 23:00S 27°30' E 153°24'3 5.3
2017-Nov-01 22:31S 27°32' E 153°22'4 7.8
2017-Nov-01 22:00S 27°32' E 153°17'0 0.0
2017-Nov-01 21:30S 27°32' E 153°17'5 6.8
2017-Nov-01 20:42S 27°31' E 153°23'1 6.0
2017-Nov-01 20:30S 27°30' E 153°24'3 5.7
2017-Nov-01 20:00S 27°32' E 153°21'4 0.2
2017-Nov-01 02:00S 27°32' E 153°17'2 4.3
2017-Nov-01 01:30S 27°32' E 153°19'4 8.8
2017-Nov-01 01:00S 27°30' E 153°24'3 6.4
2017-Nov-01 00:30S 27°32' E 153°21'3 6.6
2017-Nov-01 00:00S 27°32' E 153°17'2 4.0
2017-Oct-31 23:30S 27°32' E 153°19'5 9.1
2017-Oct-31 23:00S 27°30' E 153°24'2 4.8
2017-Oct-31 22:30S 27°32' E 153°22'4 8.3
2017-Oct-31 22:00S 27°32' E 153°17'0 0.0
2017-Oct-31 21:30S 27°32' E 153°17'3 5.6
2017-Oct-31 21:00S 27°32' E 153°20'4 7.5
2017-Oct-31 20:30S 27°30' E 153°24'2 3.9
2017-Oct-31 20:00S 27°31' E 153°22'5 9.2
2017-Oct-31 19:30S 27°32' E 153°17'  

Dump ship's entire track history